sensor_id;sensor_type;location;lat;lon;timestamp;P1;durP1;ratioP1;P2;durP2;ratioP2
32365;SDS011;18837;46.832;16.838;2024-03-02T00:00:31;39.10;;;31.50;;
32365;SDS011;18837;46.832;16.838;2024-03-02T00:09:06;41.87;;;30.87;;
32365;SDS011;18837;46.832;16.838;2024-03-02T00:11:37;40.60;;;31.50;;
32365;SDS011;18837;46.832;16.838;2024-03-02T00:14:04;41.70;;;31.97;;
32365;SDS011;18837;46.832;16.838;2024-03-02T00:16:30;40.23;;;32.33;;
32365;SDS011;18837;46.832;16.838;2024-03-02T00:19:00;41.60;;;31.27;;
32365;SDS011;18837;46.832;16.838;2024-03-02T00:21:48;42.03;;;32.60;;
32365;SDS011;18837;46.832;16.838;2024-03-02T00:24:19;40.80;;;32.87;;
32365;SDS011;18837;46.832;16.838;2024-03-02T00:26:46;41.43;;;32.20;;
32365;SDS011;18837;46.832;16.838;2024-03-02T00:29:12;40.73;;;31.23;;
32365;SDS011;18837;46.832;16.838;2024-03-02T00:31:42;41.87;;;31.80;;
32365;SDS011;18837;46.832;16.838;2024-03-02T00:34:07;40.03;;;32.33;;
32365;SDS011;18837;46.832;16.838;2024-03-02T00:43:44;39.00;;;31.23;;
32365;SDS011;18837;46.832;16.838;2024-03-02T00:46:44;38.70;;;30.17;;
32365;SDS011;18837;46.832;16.838;2024-03-02T00:49:25;40.93;;;31.10;;
32365;SDS011;18837;46.832;16.838;2024-03-02T00:51:52;37.23;;;29.77;;
32365;SDS011;18837;46.832;16.838;2024-03-02T00:54:19;38.73;;;30.43;;
32365;SDS011;18837;46.832;16.838;2024-03-02T00:57:10;38.43;;;31.17;;
32365;SDS011;18837;46.832;16.838;2024-03-02T00:59:37;38.70;;;31.53;;
32365;SDS011;18837;46.832;16.838;2024-03-02T01:02:03;38.87;;;31.07;;
32365;SDS011;18837;46.832;16.838;2024-03-02T01:04:29;37.87;;;30.37;;
32365;SDS011;18837;46.832;16.838;2024-03-02T01:06:55;39.20;;;30.87;;
32365;SDS011;18837;46.832;16.838;2024-03-02T01:09:20;40.30;;;30.47;;
32365;SDS011;18837;46.832;16.838;2024-03-02T01:18:02;40.07;;;30.30;;
32365;SDS011;18837;46.832;16.838;2024-03-02T01:20:28;41.43;;;32.07;;
32365;SDS011;18837;46.832;16.838;2024-03-02T01:22:54;39.13;;;30.97;;
32365;SDS011;18837;46.832;16.838;2024-03-02T01:25:20;39.17;;;31.03;;
32365;SDS011;18837;46.832;16.838;2024-03-02T01:27:46;39.73;;;30.63;;
32365;SDS011;18837;46.832;16.838;2024-03-02T01:33:01;39.27;;;30.27;;
32365;SDS011;18837;46.832;16.838;2024-03-02T01:35:27;43.70;;;32.13;;
32365;SDS011;18837;46.832;16.838;2024-03-02T01:37:53;42.77;;;31.03;;
32365;SDS011;18837;46.832;16.838;2024-03-02T01:40:19;43.70;;;31.53;;
32365;SDS011;18837;46.832;16.838;2024-03-02T01:42:45;41.70;;;31.93;;
32365;SDS011;18837;46.832;16.838;2024-03-02T01:45:11;41.43;;;30.93;;
32365;SDS011;18837;46.832;16.838;2024-03-02T01:50:59;39.80;;;29.63;;
32365;SDS011;18837;46.832;16.838;2024-03-02T01:53:26;40.57;;;30.77;;
32365;SDS011;18837;46.832;16.838;2024-03-02T01:55:53;44.43;;;31.23;;
32365;SDS011;18837;46.832;16.838;2024-03-02T01:58:18;41.53;;;31.33;;
32365;SDS011;18837;46.832;16.838;2024-03-02T02:00:44;42.60;;;30.73;;
32365;SDS011;18837;46.832;16.838;2024-03-02T02:03:10;43.60;;;31.60;;
32365;SDS011;18837;46.832;16.838;2024-03-02T02:08:28;41.50;;;29.80;;
32365;SDS011;18837;46.832;16.838;2024-03-02T02:10:54;41.50;;;31.10;;
32365;SDS011;18837;46.832;16.838;2024-03-02T02:13:20;41.00;;;30.40;;
32365;SDS011;18837;46.832;16.838;2024-03-02T02:15:45;42.20;;;31.43;;
32365;SDS011;18837;46.832;16.838;2024-03-02T02:18:11;40.93;;;31.63;;
32365;SDS011;18837;46.832;16.838;2024-03-02T02:27:04;40.73;;;29.43;;
32365;SDS011;18837;46.832;16.838;2024-03-02T02:29:30;42.30;;;30.53;;
32365;SDS011;18837;46.832;16.838;2024-03-02T02:31:55;40.07;;;29.60;;
32365;SDS011;18837;46.832;16.838;2024-03-02T02:34:21;41.83;;;29.63;;
32365;SDS011;18837;46.832;16.838;2024-03-02T02:36:47;41.27;;;30.07;;
32365;SDS011;18837;46.832;16.838;2024-03-02T02:42:22;43.27;;;30.27;;
32365;SDS011;18837;46.832;16.838;2024-03-02T02:44:48;40.93;;;29.73;;
32365;SDS011;18837;46.832;16.838;2024-03-02T02:47:14;41.27;;;30.50;;
32365;SDS011;18837;46.832;16.838;2024-03-02T02:49:40;41.67;;;30.63;;
32365;SDS011;18837;46.832;16.838;2024-03-02T02:52:06;43.87;;;30.70;;
32365;SDS011;18837;46.832;16.838;2024-03-02T03:01:16;43.47;;;29.27;;
32365;SDS011;18837;46.832;16.838;2024-03-02T03:03:45;39.97;;;30.20;;
32365;SDS011;18837;46.832;16.838;2024-03-02T03:06:11;42.07;;;29.73;;
32365;SDS011;18837;46.832;16.838;2024-03-02T03:08:37;41.87;;;30.57;;
32365;SDS011;18837;46.832;16.838;2024-03-02T03:11:03;38.97;;;28.40;;
32365;SDS011;18837;46.832;16.838;2024-03-02T03:13:33;42.30;;;29.60;;
32365;SDS011;18837;46.832;16.838;2024-03-02T03:18:53;40.07;;;29.27;;
32365;SDS011;18837;46.832;16.838;2024-03-02T03:21:19;40.80;;;30.40;;
32365;SDS011;18837;46.832;16.838;2024-03-02T03:23:44;40.87;;;30.07;;
32365;SDS011;18837;46.832;16.838;2024-03-02T03:26:10;40.80;;;29.53;;
32365;SDS011;18837;46.832;16.838;2024-03-02T03:28:36;41.93;;;30.73;;
32365;SDS011;18837;46.832;16.838;2024-03-02T03:37:15;39.67;;;29.50;;
32365;SDS011;18837;46.832;16.838;2024-03-02T03:39:41;41.23;;;29.93;;
32365;SDS011;18837;46.832;16.838;2024-03-02T03:42:06;38.20;;;28.20;;
32365;SDS011;18837;46.832;16.838;2024-03-02T03:44:32;41.70;;;30.83;;
32365;SDS011;18837;46.832;16.838;2024-03-02T03:46:59;39.07;;;28.57;;
32365;SDS011;18837;46.832;16.838;2024-03-02T03:49:39;41.30;;;29.43;;
32365;SDS011;18837;46.832;16.838;2024-03-02T03:52:05;41.07;;;28.77;;
32365;SDS011;18837;46.832;16.838;2024-03-02T03:54:31;39.30;;;27.70;;
32365;SDS011;18837;46.832;16.838;2024-03-02T03:56:57;41.00;;;29.93;;
32365;SDS011;18837;46.832;16.838;2024-03-02T03:59:22;42.63;;;29.10;;
32365;SDS011;18837;46.832;16.838;2024-03-02T04:01:48;39.27;;;28.37;;
32365;SDS011;18837;46.832;16.838;2024-03-02T04:10:27;40.07;;;28.47;;
32365;SDS011;18837;46.832;16.838;2024-03-02T04:12:53;42.67;;;28.90;;
32365;SDS011;18837;46.832;16.838;2024-03-02T04:15:19;39.17;;;29.13;;
32365;SDS011;18837;46.832;16.838;2024-03-02T04:17:45;37.87;;;28.03;;
32365;SDS011;18837;46.832;16.838;2024-03-02T04:20:11;38.03;;;27.70;;
32365;SDS011;18837;46.832;16.838;2024-03-02T04:25:50;42.00;;;29.93;;
32365;SDS011;18837;46.832;16.838;2024-03-02T04:28:15;38.87;;;28.67;;
32365;SDS011;18837;46.832;16.838;2024-03-02T04:30:41;40.80;;;29.57;;
32365;SDS011;18837;46.832;16.838;2024-03-02T04:33:07;40.73;;;29.60;;
32365;SDS011;18837;46.832;16.838;2024-03-02T04:35:38;40.43;;;28.80;;
32365;SDS011;18837;46.832;16.838;2024-03-02T04:44:48;39.03;;;28.10;;
32365;SDS011;18837;46.832;16.838;2024-03-02T04:47:13;39.77;;;28.13;;
32365;SDS011;18837;46.832;16.838;2024-03-02T04:49:39;37.47;;;27.77;;
32365;SDS011;18837;46.832;16.838;2024-03-02T04:52:05;38.70;;;28.63;;
32365;SDS011;18837;46.832;16.838;2024-03-02T04:54:31;39.40;;;28.17;;
32365;SDS011;18837;46.832;16.838;2024-03-02T04:59:45;39.47;;;28.07;;
32365;SDS011;18837;46.832;16.838;2024-03-02T05:02:11;37.37;;;27.83;;
32365;SDS011;18837;46.832;16.838;2024-03-02T05:04:39;37.60;;;27.53;;
32365;SDS011;18837;46.832;16.838;2024-03-02T05:07:05;37.47;;;27.77;;
32365;SDS011;18837;46.832;16.838;2024-03-02T05:09:31;41.17;;;28.80;;
32365;SDS011;18837;46.832;16.838;2024-03-02T05:11:56;39.60;;;27.83;;
32365;SDS011;18837;46.832;16.838;2024-03-02T05:24:44;38.33;;;27.73;;
32365;SDS011;18837;46.832;16.838;2024-03-02T05:27:10;39.43;;;28.37;;
32365;SDS011;18837;46.832;16.838;2024-03-02T05:29:36;35.93;;;27.10;;
32365;SDS011;18837;46.832;16.838;2024-03-02T05:35:06;37.10;;;26.90;;
32365;SDS011;18837;46.832;16.838;2024-03-02T05:37:33;36.63;;;26.13;;
32365;SDS011;18837;46.832;16.838;2024-03-02T05:39:59;37.80;;;28.17;;
32365;SDS011;18837;46.832;16.838;2024-03-02T05:42:24;34.73;;;26.30;;
32365;SDS011;18837;46.832;16.838;2024-03-02T05:44:52;35.93;;;25.20;;
32365;SDS011;18837;46.832;16.838;2024-03-02T05:50:42;38.97;;;27.37;;
32365;SDS011;18837;46.832;16.838;2024-03-02T05:53:37;34.33;;;26.10;;
32365;SDS011;18837;46.832;16.838;2024-03-02T05:56:07;36.93;;;27.20;;
32365;SDS011;18837;46.832;16.838;2024-03-02T05:58:33;34.97;;;25.97;;
32365;SDS011;18837;46.832;16.838;2024-03-02T06:01:17;34.73;;;26.20;;
32365;SDS011;18837;46.832;16.838;2024-03-02T06:03:47;34.20;;;25.63;;
32365;SDS011;18837;46.832;16.838;2024-03-02T06:06:14;38.23;;;27.40;;
32365;SDS011;18837;46.832;16.838;2024-03-02T06:08:40;36.87;;;26.30;;
32365;SDS011;18837;46.832;16.838;2024-03-02T06:11:05;33.37;;;24.80;;
32365;SDS011;18837;46.832;16.838;2024-03-02T06:13:31;33.80;;;25.93;;
32365;SDS011;18837;46.832;16.838;2024-03-02T06:15:57;33.77;;;25.57;;
32365;SDS011;18837;46.832;16.838;2024-03-02T06:18:23;35.77;;;25.60;;
32365;SDS011;18837;46.832;16.838;2024-03-02T06:20:49;35.67;;;26.93;;
32365;SDS011;18837;46.832;16.838;2024-03-02T06:26:03;37.07;;;26.20;;
32365;SDS011;18837;46.832;16.838;2024-03-02T06:28:29;34.20;;;25.03;;
32365;SDS011;18837;46.832;16.838;2024-03-02T06:30:54;34.63;;;25.33;;
32365;SDS011;18837;46.832;16.838;2024-03-02T06:33:20;34.40;;;25.43;;
32365;SDS011;18837;46.832;16.838;2024-03-02T06:35:46;37.07;;;26.60;;
32365;SDS011;18837;46.832;16.838;2024-03-02T06:41:50;33.53;;;24.87;;
32365;SDS011;18837;46.832;16.838;2024-03-02T06:44:19;32.73;;;24.77;;
32365;SDS011;18837;46.832;16.838;2024-03-02T06:46:44;37.33;;;26.23;;
32365;SDS011;18837;46.832;16.838;2024-03-02T06:49:10;36.17;;;26.23;;
32365;SDS011;18837;46.832;16.838;2024-03-02T06:51:36;34.70;;;25.73;;
32365;SDS011;18837;46.832;16.838;2024-03-02T06:54:02;32.90;;;25.27;;
32365;SDS011;18837;46.832;16.838;2024-03-02T06:59:18;35.67;;;25.87;;
32365;SDS011;18837;46.832;16.838;2024-03-02T07:01:44;35.20;;;26.03;;
32365;SDS011;18837;46.832;16.838;2024-03-02T07:04:10;35.83;;;25.30;;
32365;SDS011;18837;46.832;16.838;2024-03-02T07:06:36;33.17;;;24.83;;
32365;SDS011;18837;46.832;16.838;2024-03-02T07:09:01;31.27;;;24.07;;
32365;SDS011;18837;46.832;16.838;2024-03-02T07:18:11;33.30;;;23.77;;
32365;SDS011;18837;46.832;16.838;2024-03-02T07:20:37;33.40;;;24.93;;
32365;SDS011;18837;46.832;16.838;2024-03-02T07:23:04;33.87;;;25.23;;
32365;SDS011;18837;46.832;16.838;2024-03-02T07:25:31;33.77;;;24.50;;
32365;SDS011;18837;46.832;16.838;2024-03-02T07:27:57;33.37;;;25.10;;
32365;SDS011;18837;46.832;16.838;2024-03-02T07:33:14;35.87;;;25.17;;
32365;SDS011;18837;46.832;16.838;2024-03-02T07:35:41;33.23;;;24.77;;
32365;SDS011;18837;46.832;16.838;2024-03-02T07:38:08;32.83;;;25.00;;
32365;SDS011;18837;46.832;16.838;2024-03-02T07:40:34;36.00;;;26.10;;
32365;SDS011;18837;46.832;16.838;2024-03-02T07:43:00;32.10;;;25.00;;
32365;SDS011;18837;46.832;16.838;2024-03-02T07:52:10;32.20;;;24.27;;
32365;SDS011;18837;46.832;16.838;2024-03-02T07:54:36;34.13;;;24.37;;
32365;SDS011;18837;46.832;16.838;2024-03-02T07:57:01;33.00;;;23.23;;
32365;SDS011;18837;46.832;16.838;2024-03-02T07:59:28;34.97;;;24.57;;
32365;SDS011;18837;46.832;16.838;2024-03-02T08:01:54;33.70;;;23.87;;
32365;SDS011;18837;46.832;16.838;2024-03-02T08:04:20;35.90;;;24.67;;
32365;SDS011;18837;46.832;16.838;2024-03-02T08:09:34;33.43;;;23.67;;
32365;SDS011;18837;46.832;16.838;2024-03-02T08:12:00;32.13;;;23.90;;
32365;SDS011;18837;46.832;16.838;2024-03-02T08:14:26;32.37;;;23.77;;
32365;SDS011;18837;46.832;16.838;2024-03-02T08:16:52;29.03;;;22.40;;
32365;SDS011;18837;46.832;16.838;2024-03-02T08:19:18;34.30;;;23.73;;
32365;SDS011;18837;46.832;16.838;2024-03-02T08:21:44;32.33;;;23.07;;
32365;SDS011;18837;46.832;16.838;2024-03-02T08:30:35;35.53;;;24.20;;
32365;SDS011;18837;46.832;16.838;2024-03-02T08:33:01;34.40;;;23.83;;
32365;SDS011;18837;46.832;16.838;2024-03-02T08:35:27;34.77;;;24.43;;
32365;SDS011;18837;46.832;16.838;2024-03-02T08:37:53;34.50;;;24.67;;
32365;SDS011;18837;46.832;16.838;2024-03-02T08:40:18;35.93;;;23.87;;
32365;SDS011;18837;46.832;16.838;2024-03-02T08:42:44;32.23;;;24.03;;
32365;SDS011;18837;46.832;16.838;2024-03-02T08:45:10;36.47;;;25.47;;
32365;SDS011;18837;46.832;16.838;2024-03-02T08:47:36;35.43;;;24.90;;
32365;SDS011;18837;46.832;16.838;2024-03-02T08:50:02;36.00;;;24.67;;
32365;SDS011;18837;46.832;16.838;2024-03-02T08:52:30;34.37;;;24.47;;
32365;SDS011;18837;46.832;16.838;2024-03-02T08:54:55;37.07;;;24.13;;
32365;SDS011;18837;46.832;16.838;2024-03-02T08:57:27;30.50;;;23.23;;
32365;SDS011;18837;46.832;16.838;2024-03-02T08:59:53;32.60;;;23.87;;
32365;SDS011;18837;46.832;16.838;2024-03-02T09:02:19;32.93;;;23.67;;
32365;SDS011;18837;46.832;16.838;2024-03-02T09:04:46;32.40;;;23.50;;
32365;SDS011;18837;46.832;16.838;2024-03-02T09:07:12;36.23;;;24.17;;
32365;SDS011;18837;46.832;16.838;2024-03-02T09:09:38;31.47;;;22.57;;
32365;SDS011;18837;46.832;16.838;2024-03-02T09:12:10;33.53;;;22.87;;
32365;SDS011;18837;46.832;16.838;2024-03-02T09:18:06;31.53;;;23.33;;
32365;SDS011;18837;46.832;16.838;2024-03-02T09:20:32;34.50;;;23.57;;
32365;SDS011;18837;46.832;16.838;2024-03-02T09:22:58;34.23;;;24.93;;
32365;SDS011;18837;46.832;16.838;2024-03-02T09:25:24;33.30;;;24.27;;
32365;SDS011;18837;46.832;16.838;2024-03-02T09:27:50;37.50;;;26.43;;
32365;SDS011;18837;46.832;16.838;2024-03-02T09:30:16;36.20;;;25.70;;
32365;SDS011;18837;46.832;16.838;2024-03-02T09:32:42;38.63;;;26.87;;
32365;SDS011;18837;46.832;16.838;2024-03-02T09:35:08;38.00;;;26.17;;
32365;SDS011;18837;46.832;16.838;2024-03-02T09:37:34;39.00;;;25.83;;
32365;SDS011;18837;46.832;16.838;2024-03-02T09:40:01;34.97;;;25.33;;
32365;SDS011;18837;46.832;16.838;2024-03-02T09:42:27;37.13;;;25.17;;
32365;SDS011;18837;46.832;16.838;2024-03-02T09:44:53;31.10;;;23.13;;
32365;SDS011;18837;46.832;16.838;2024-03-02T09:47:19;32.63;;;24.27;;
32365;SDS011;18837;46.832;16.838;2024-03-02T09:49:45;36.20;;;24.53;;
32365;SDS011;18837;46.832;16.838;2024-03-02T09:52:11;35.20;;;25.80;;
32365;SDS011;18837;46.832;16.838;2024-03-02T09:54:39;36.80;;;24.77;;
32365;SDS011;18837;46.832;16.838;2024-03-02T09:57:05;36.00;;;25.33;;
32365;SDS011;18837;46.832;16.838;2024-03-02T09:59:31;34.83;;;23.87;;
32365;SDS011;18837;46.832;16.838;2024-03-02T10:04:47;32.33;;;24.13;;
32365;SDS011;18837;46.832;16.838;2024-03-02T10:07:15;32.17;;;23.53;;
32365;SDS011;18837;46.832;16.838;2024-03-02T10:09:42;32.80;;;24.87;;
32365;SDS011;18837;46.832;16.838;2024-03-02T10:12:11;33.00;;;22.97;;
32365;SDS011;18837;46.832;16.838;2024-03-02T10:14:38;31.20;;;24.17;;
32365;SDS011;18837;46.832;16.838;2024-03-02T10:23:12;31.37;;;23.43;;
32365;SDS011;18837;46.832;16.838;2024-03-02T10:25:41;35.00;;;24.63;;
32365;SDS011;18837;46.832;16.838;2024-03-02T10:28:07;31.03;;;22.63;;
32365;SDS011;18837;46.832;16.838;2024-03-02T10:30:33;33.47;;;23.90;;
32365;SDS011;18837;46.832;16.838;2024-03-02T10:33:03;35.17;;;24.23;;
32365;SDS011;18837;46.832;16.838;2024-03-02T10:35:47;35.03;;;25.57;;
32365;SDS011;18837;46.832;16.838;2024-03-02T10:38:15;33.13;;;24.60;;
32365;SDS011;18837;46.832;16.838;2024-03-02T10:40:41;33.30;;;24.03;;
32365;SDS011;18837;46.832;16.838;2024-03-02T10:43:13;31.07;;;23.07;;
32365;SDS011;18837;46.832;16.838;2024-03-02T10:45:40;35.80;;;25.40;;
32365;SDS011;18837;46.832;16.838;2024-03-02T10:48:05;37.70;;;26.70;;
32365;SDS011;18837;46.832;16.838;2024-03-02T10:50:33;33.37;;;25.43;;
32365;SDS011;18837;46.832;16.838;2024-03-02T11:02:01;34.57;;;25.60;;
32365;SDS011;18837;46.832;16.838;2024-03-02T11:04:28;33.00;;;25.23;;
32365;SDS011;18837;46.832;16.838;2024-03-02T11:06:59;34.90;;;25.43;;
32365;SDS011;18837;46.832;16.838;2024-03-02T11:09:28;36.33;;;26.27;;
32365;SDS011;18837;46.832;16.838;2024-03-02T11:14:54;33.43;;;23.87;;
32365;SDS011;18837;46.832;16.838;2024-03-02T11:17:21;33.40;;;24.37;;
32365;SDS011;18837;46.832;16.838;2024-03-02T11:19:48;37.27;;;26.10;;
32365;SDS011;18837;46.832;16.838;2024-03-02T11:22:15;34.33;;;24.63;;
32365;SDS011;18837;46.832;16.838;2024-03-02T11:24:48;33.57;;;23.60;;
32365;SDS011;18837;46.832;16.838;2024-03-02T11:30:49;31.23;;;23.23;;
32365;SDS011;18837;46.832;16.838;2024-03-02T11:33:15;33.17;;;24.30;;
32365;SDS011;18837;46.832;16.838;2024-03-02T11:35:48;33.03;;;24.87;;
32365;SDS011;18837;46.832;16.838;2024-03-02T11:38:17;31.87;;;23.73;;
32365;SDS011;18837;46.832;16.838;2024-03-02T11:40:44;35.63;;;24.93;;
32365;SDS011;18837;46.832;16.838;2024-03-02T11:43:10;32.77;;;24.03;;
32365;SDS011;18837;46.832;16.838;2024-03-02T11:48:25;34.33;;;24.70;;
32365;SDS011;18837;46.832;16.838;2024-03-02T11:50:52;34.17;;;23.47;;
32365;SDS011;18837;46.832;16.838;2024-03-02T11:53:19;33.43;;;24.73;;
32365;SDS011;18837;46.832;16.838;2024-03-02T11:55:46;35.33;;;27.33;;
32365;SDS011;18837;46.832;16.838;2024-03-02T11:58:13;36.50;;;26.83;;
32365;SDS011;18837;46.832;16.838;2024-03-02T12:06:20;33.80;;;24.83;;
32365;SDS011;18837;46.832;16.838;2024-03-02T12:08:46;34.80;;;24.97;;
32365;SDS011;18837;46.832;16.838;2024-03-02T12:11:17;32.07;;;24.33;;
32365;SDS011;18837;46.832;16.838;2024-03-02T12:13:51;36.63;;;26.53;;
32365;SDS011;18837;46.832;16.838;2024-03-02T12:16:26;35.77;;;26.50;;
32365;SDS011;18837;46.832;16.838;2024-03-02T12:19:07;33.67;;;24.93;;
32365;SDS011;18837;46.832;16.838;2024-03-02T12:21:33;36.47;;;26.57;;
32365;SDS011;18837;46.832;16.838;2024-03-02T12:23:59;33.90;;;24.53;;
32365;SDS011;18837;46.832;16.838;2024-03-02T12:26:26;31.00;;;24.33;;
32365;SDS011;18837;46.832;16.838;2024-03-02T12:28:52;35.27;;;24.83;;
32365;SDS011;18837;46.832;16.838;2024-03-02T12:31:19;31.93;;;23.50;;
32365;SDS011;18837;46.832;16.838;2024-03-02T12:33:45;38.80;;;26.23;;
32365;SDS011;18837;46.832;16.838;2024-03-02T12:36:24;35.83;;;25.03;;
32365;SDS011;18837;46.832;16.838;2024-03-02T12:38:53;36.23;;;26.70;;
32365;SDS011;18837;46.832;16.838;2024-03-02T12:41:20;31.57;;;23.90;;
32365;SDS011;18837;46.832;16.838;2024-03-02T12:43:46;33.93;;;24.80;;
32365;SDS011;18837;46.832;16.838;2024-03-02T12:46:12;34.97;;;25.77;;
32365;SDS011;18837;46.832;16.838;2024-03-02T12:48:38;34.30;;;25.57;;
32365;SDS011;18837;46.832;16.838;2024-03-02T12:51:06;34.67;;;25.00;;
32365;SDS011;18837;46.832;16.838;2024-03-02T12:53:41;35.17;;;25.73;;
32365;SDS011;18837;46.832;16.838;2024-03-02T12:56:08;35.47;;;24.80;;
32365;SDS011;18837;46.832;16.838;2024-03-02T12:58:38;31.37;;;23.10;;
32365;SDS011;18837;46.832;16.838;2024-03-02T13:01:09;36.17;;;24.50;;
32365;SDS011;18837;46.832;16.838;2024-03-02T13:03:37;33.87;;;25.43;;
32365;SDS011;18837;46.832;16.838;2024-03-02T13:06:04;31.50;;;24.10;;
32365;SDS011;18837;46.832;16.838;2024-03-02T13:08:40;36.50;;;25.53;;
32365;SDS011;18837;46.832;16.838;2024-03-02T13:14:13;36.20;;;24.33;;
32365;SDS011;18837;46.832;16.838;2024-03-02T13:16:39;35.80;;;24.97;;
32365;SDS011;18837;46.832;16.838;2024-03-02T13:19:09;31.70;;;23.43;;
32365;SDS011;18837;46.832;16.838;2024-03-02T13:21:36;33.27;;;23.57;;
32365;SDS011;18837;46.832;16.838;2024-03-02T13:24:02;33.07;;;24.03;;
32365;SDS011;18837;46.832;16.838;2024-03-02T13:26:29;33.23;;;23.53;;
32365;SDS011;18837;46.832;16.838;2024-03-02T13:31:43;32.57;;;22.80;;
32365;SDS011;18837;46.832;16.838;2024-03-02T13:34:09;32.77;;;22.87;;
32365;SDS011;18837;46.832;16.838;2024-03-02T13:36:35;31.83;;;22.87;;
32365;SDS011;18837;46.832;16.838;2024-03-02T13:39:00;32.87;;;23.53;;
32365;SDS011;18837;46.832;16.838;2024-03-02T13:41:26;30.13;;;23.43;;
32365;SDS011;18837;46.832;16.838;2024-03-02T13:49:31;28.73;;;22.03;;
32365;SDS011;18837;46.832;16.838;2024-03-02T13:52:04;29.93;;;22.90;;
32365;SDS011;18837;46.832;16.838;2024-03-02T13:54:41;32.97;;;23.90;;
32365;SDS011;18837;46.832;16.838;2024-03-02T13:57:11;35.67;;;24.67;;
32365;SDS011;18837;46.832;16.838;2024-03-02T13:59:38;32.50;;;23.20;;
32365;SDS011;18837;46.832;16.838;2024-03-02T14:02:05;32.17;;;23.33;;
32365;SDS011;18837;46.832;16.838;2024-03-02T14:04:32;31.47;;;23.00;;
32365;SDS011;18837;46.832;16.838;2024-03-02T14:07:01;31.43;;;22.73;;
32365;SDS011;18837;46.832;16.838;2024-03-02T14:09:27;31.30;;;24.00;;
32365;SDS011;18837;46.832;16.838;2024-03-02T14:11:54;27.67;;;21.73;;
32365;SDS011;18837;46.832;16.838;2024-03-02T14:14:20;30.73;;;22.03;;
32365;SDS011;18837;46.832;16.838;2024-03-02T14:16:46;30.97;;;22.23;;
32365;SDS011;18837;46.832;16.838;2024-03-02T14:22:06;28.20;;;19.90;;
32365;SDS011;18837;46.832;16.838;2024-03-02T14:24:32;26.03;;;20.03;;
32365;SDS011;18837;46.832;16.838;2024-03-02T14:26:57;25.67;;;19.63;;
32365;SDS011;18837;46.832;16.838;2024-03-02T14:29:26;26.50;;;20.13;;
32365;SDS011;18837;46.832;16.838;2024-03-02T14:31:52;24.57;;;18.53;;
32365;SDS011;18837;46.832;16.838;2024-03-02T14:34:18;22.83;;;18.40;;
32365;SDS011;18837;46.832;16.838;2024-03-02T14:37:02;23.40;;;18.73;;
32365;SDS011;18837;46.832;16.838;2024-03-02T14:39:28;26.90;;;20.70;;
32365;SDS011;18837;46.832;16.838;2024-03-02T14:41:59;25.70;;;18.97;;
32365;SDS011;18837;46.832;16.838;2024-03-02T14:44:26;27.70;;;19.90;;
32365;SDS011;18837;46.832;16.838;2024-03-02T14:46:52;28.20;;;20.37;;
32365;SDS011;18837;46.832;16.838;2024-03-02T14:49:18;26.90;;;19.77;;
32365;SDS011;18837;46.832;16.838;2024-03-02T14:51:44;25.37;;;18.97;;
32365;SDS011;18837;46.832;16.838;2024-03-02T14:57:18;29.07;;;20.13;;
32365;SDS011;18837;46.832;16.838;2024-03-02T14:59:44;29.20;;;21.13;;
32365;SDS011;18837;46.832;16.838;2024-03-02T15:02:10;25.20;;;20.40;;
32365;SDS011;18837;46.832;16.838;2024-03-02T15:04:36;26.83;;;20.13;;
32365;SDS011;18837;46.832;16.838;2024-03-02T15:07:02;27.30;;;20.27;;
32365;SDS011;18837;46.832;16.838;2024-03-02T15:09:28;29.57;;;20.93;;
32365;SDS011;18837;46.832;16.838;2024-03-02T15:11:57;28.43;;;20.73;;
32365;SDS011;18837;46.832;16.838;2024-03-02T15:14:23;27.83;;;20.50;;
32365;SDS011;18837;46.832;16.838;2024-03-02T15:16:49;28.80;;;21.13;;
32365;SDS011;18837;46.832;16.838;2024-03-02T15:19:15;27.00;;;21.50;;
32365;SDS011;18837;46.832;16.838;2024-03-02T15:21:41;27.60;;;20.17;;
32365;SDS011;18837;46.832;16.838;2024-03-02T15:24:07;29.20;;;19.43;;
32365;SDS011;18837;46.832;16.838;2024-03-02T15:32:45;25.37;;;20.00;;
32365;SDS011;18837;46.832;16.838;2024-03-02T15:35:10;27.43;;;20.20;;
32365;SDS011;18837;46.832;16.838;2024-03-02T15:37:36;26.33;;;19.40;;
32365;SDS011;18837;46.832;16.838;2024-03-02T15:40:02;25.83;;;19.30;;
32365;SDS011;18837;46.832;16.838;2024-03-02T15:42:32;22.23;;;17.40;;
32365;SDS011;18837;46.832;16.838;2024-03-02T15:44:59;23.00;;;17.50;;
32365;SDS011;18837;46.832;16.838;2024-03-02T15:47:26;21.50;;;16.77;;
32365;SDS011;18837;46.832;16.838;2024-03-02T15:49:52;21.90;;;16.80;;
32365;SDS011;18837;46.832;16.838;2024-03-02T15:52:18;22.17;;;16.87;;
32365;SDS011;18837;46.832;16.838;2024-03-02T15:54:44;21.93;;;16.43;;
32365;SDS011;18837;46.832;16.838;2024-03-02T15:57:10;20.97;;;17.80;;
32365;SDS011;18837;46.832;16.838;2024-03-02T15:59:37;22.20;;;16.70;;
32365;SDS011;18837;46.832;16.838;2024-03-02T16:05:18;21.63;;;16.37;;
32365;SDS011;18837;46.832;16.838;2024-03-02T16:07:45;20.13;;;15.93;;
32365;SDS011;18837;46.832;16.838;2024-03-02T16:10:11;21.73;;;16.37;;
32365;SDS011;18837;46.832;16.838;2024-03-02T16:12:37;20.33;;;15.50;;
32365;SDS011;18837;46.832;16.838;2024-03-02T16:15:04;20.93;;;15.93;;
32365;SDS011;18837;46.832;16.838;2024-03-02T16:17:30;21.60;;;16.73;;
32365;SDS011;18837;46.832;16.838;2024-03-02T16:19:56;22.47;;;16.73;;
32365;SDS011;18837;46.832;16.838;2024-03-02T16:22:24;22.23;;;16.33;;
32365;SDS011;18837;46.832;16.838;2024-03-02T16:24:50;20.63;;;16.17;;
32365;SDS011;18837;46.832;16.838;2024-03-02T16:27:16;19.97;;;15.17;;
32365;SDS011;18837;46.832;16.838;2024-03-02T16:29:45;24.27;;;17.53;;
32365;SDS011;18837;46.832;16.838;2024-03-02T16:32:12;22.37;;;17.53;;
32365;SDS011;18837;46.832;16.838;2024-03-02T16:34:38;19.47;;;16.23;;
32365;SDS011;18837;46.832;16.838;2024-03-02T16:37:20;22.30;;;16.90;;
32365;SDS011;18837;46.832;16.838;2024-03-02T16:42:31;19.43;;;16.30;;
32365;SDS011;18837;46.832;16.838;2024-03-02T16:44:57;20.73;;;16.27;;
32365;SDS011;18837;46.832;16.838;2024-03-02T16:47:23;21.67;;;16.13;;
32365;SDS011;18837;46.832;16.838;2024-03-02T16:49:51;20.23;;;15.63;;
32365;SDS011;18837;46.832;16.838;2024-03-02T16:52:17;20.87;;;16.33;;
32365;SDS011;18837;46.832;16.838;2024-03-02T16:57:28;22.10;;;15.87;;
32365;SDS011;18837;46.832;16.838;2024-03-02T16:59:54;20.73;;;16.80;;
32365;SDS011;18837;46.832;16.838;2024-03-02T17:02:19;21.67;;;15.77;;
32365;SDS011;18837;46.832;16.838;2024-03-02T17:04:45;21.80;;;16.07;;
32365;SDS011;18837;46.832;16.838;2024-03-02T17:07:11;21.90;;;16.23;;
32365;SDS011;18837;46.832;16.838;2024-03-02T17:09:37;22.83;;;16.90;;
32365;SDS011;18837;46.832;16.838;2024-03-02T17:12:15;26.13;;;16.90;;
32365;SDS011;18837;46.832;16.838;2024-03-02T17:17:31;21.97;;;17.13;;
32365;SDS011;18837;46.832;16.838;2024-03-02T17:19:58;20.30;;;16.33;;
32365;SDS011;18837;46.832;16.838;2024-03-02T17:22:24;22.40;;;17.73;;
32365;SDS011;18837;46.832;16.838;2024-03-02T17:24:50;21.70;;;17.30;;